sensor_id;sensor_type;location;lat;lon;timestamp;P1;durP1;ratioP1;P2;durP2;ratioP2
3050;SDS011;1535;51.098;6.414;2023-09-07T00:00:48;6.00;;;5.90;;
3050;SDS011;1535;51.098;6.414;2023-09-07T00:03:15;6.20;;;6.10;;
3050;SDS011;1535;51.098;6.414;2023-09-07T00:05:44;6.33;;;6.23;;
3050;SDS011;1535;51.098;6.414;2023-09-07T00:08:12;6.77;;;6.67;;
3050;SDS011;1535;51.098;6.414;2023-09-07T00:10:39;6.80;;;6.70;;
3050;SDS011;1535;51.098;6.414;2023-09-07T00:13:07;6.73;;;6.63;;
3050;SDS011;1535;51.098;6.414;2023-09-07T00:15:35;7.33;;;7.23;;
3050;SDS011;1535;51.098;6.414;2023-09-07T00:18:03;7.33;;;7.23;;
3050;SDS011;1535;51.098;6.414;2023-09-07T00:20:30;7.50;;;7.40;;
3050;SDS011;1535;51.098;6.414;2023-09-07T00:23:00;7.60;;;7.50;;
3050;SDS011;1535;51.098;6.414;2023-09-07T00:25:27;7.80;;;7.70;;
3050;SDS011;1535;51.098;6.414;2023-09-07T00:27:54;7.73;;;7.63;;
3050;SDS011;1535;51.098;6.414;2023-09-07T00:30:21;7.67;;;7.57;;
3050;SDS011;1535;51.098;6.414;2023-09-07T00:32:48;7.40;;;7.30;;
3050;SDS011;1535;51.098;6.414;2023-09-07T00:35:16;7.87;;;7.77;;
3050;SDS011;1535;51.098;6.414;2023-09-07T00:37:43;8.17;;;8.07;;
3050;SDS011;1535;51.098;6.414;2023-09-07T00:40:11;8.30;;;8.20;;
3050;SDS011;1535;51.098;6.414;2023-09-07T00:42:39;7.60;;;7.50;;
3050;SDS011;1535;51.098;6.414;2023-09-07T00:45:06;7.87;;;7.77;;
3050;SDS011;1535;51.098;6.414;2023-09-07T00:47:34;7.90;;;7.80;;
3050;SDS011;1535;51.098;6.414;2023-09-07T00:50:02;8.27;;;8.17;;
3050;SDS011;1535;51.098;6.414;2023-09-07T00:52:29;7.90;;;7.80;;
3050;SDS011;1535;51.098;6.414;2023-09-07T00:54:56;8.17;;;8.07;;
3050;SDS011;1535;51.098;6.414;2023-09-07T00:57:25;8.20;;;8.10;;
3050;SDS011;1535;51.098;6.414;2023-09-07T00:59:52;8.10;;;8.00;;
3050;SDS011;1535;51.098;6.414;2023-09-07T01:02:19;8.50;;;8.40;;
3050;SDS011;1535;51.098;6.414;2023-09-07T01:04:45;8.53;;;8.43;;
3050;SDS011;1535;51.098;6.414;2023-09-07T01:07:13;8.73;;;8.63;;
3050;SDS011;1535;51.098;6.414;2023-09-07T01:09:45;8.40;;;8.30;;
3050;SDS011;1535;51.098;6.414;2023-09-07T01:12:15;8.50;;;8.40;;
3050;SDS011;1535;51.098;6.414;2023-09-07T01:14:43;8.53;;;8.43;;
3050;SDS011;1535;51.098;6.414;2023-09-07T01:17:11;8.70;;;8.60;;
3050;SDS011;1535;51.098;6.414;2023-09-07T01:19:39;8.80;;;8.70;;
3050;SDS011;1535;51.098;6.414;2023-09-07T01:22:07;8.40;;;8.30;;
3050;SDS011;1535;51.098;6.414;2023-09-07T01:24:35;8.50;;;8.40;;
3050;SDS011;1535;51.098;6.414;2023-09-07T01:27:04;8.10;;;8.00;;
3050;SDS011;1535;51.098;6.414;2023-09-07T01:29:31;8.30;;;8.20;;
3050;SDS011;1535;51.098;6.414;2023-09-07T01:32:00;8.30;;;8.20;;
3050;SDS011;1535;51.098;6.414;2023-09-07T01:34:27;8.20;;;8.10;;
3050;SDS011;1535;51.098;6.414;2023-09-07T01:36:53;8.27;;;8.17;;
3050;SDS011;1535;51.098;6.414;2023-09-07T01:39:22;8.50;;;8.40;;
3050;SDS011;1535;51.098;6.414;2023-09-07T01:41:49;8.20;;;8.10;;
3050;SDS011;1535;51.098;6.414;2023-09-07T01:44:17;8.10;;;8.00;;
3050;SDS011;1535;51.098;6.414;2023-09-07T01:46:44;8.50;;;8.40;;
3050;SDS011;1535;51.098;6.414;2023-09-07T01:49:11;8.13;;;8.03;;
3050;SDS011;1535;51.098;6.414;2023-09-07T01:51:38;8.50;;;8.40;;
3050;SDS011;1535;51.098;6.414;2023-09-07T01:54:05;8.40;;;8.30;;
3050;SDS011;1535;51.098;6.414;2023-09-07T01:56:36;8.30;;;8.20;;
3050;SDS011;1535;51.098;6.414;2023-09-07T01:59:06;8.40;;;8.30;;
3050;SDS011;1535;51.098;6.414;2023-09-07T02:01:33;8.20;;;8.10;;
3050;SDS011;1535;51.098;6.414;2023-09-07T02:04:01;8.10;;;8.00;;
3050;SDS011;1535;51.098;6.414;2023-09-07T02:06:28;8.27;;;8.17;;
3050;SDS011;1535;51.098;6.414;2023-09-07T02:08:56;8.20;;;8.10;;
3050;SDS011;1535;51.098;6.414;2023-09-07T02:11:22;8.40;;;8.30;;
3050;SDS011;1535;51.098;6.414;2023-09-07T02:13:52;8.30;;;8.20;;
3050;SDS011;1535;51.098;6.414;2023-09-07T02:16:19;8.40;;;8.30;;
3050;SDS011;1535;51.098;6.414;2023-09-07T02:18:48;8.40;;;8.30;;
3050;SDS011;1535;51.098;6.414;2023-09-07T02:21:16;8.20;;;8.10;;
3050;SDS011;1535;51.098;6.414;2023-09-07T02:23:43;8.30;;;8.20;;
3050;SDS011;1535;51.098;6.414;2023-09-07T02:26:10;8.30;;;8.20;;
3050;SDS011;1535;51.098;6.414;2023-09-07T02:28:36;8.40;;;8.30;;
3050;SDS011;1535;51.098;6.414;2023-09-07T02:31:05;8.20;;;8.10;;
3050;SDS011;1535;51.098;6.414;2023-09-07T02:33:33;8.30;;;8.20;;
3050;SDS011;1535;51.098;6.414;2023-09-07T02:36:00;8.30;;;8.20;;
3050;SDS011;1535;51.098;6.414;2023-09-07T02:38:28;8.40;;;8.30;;
3050;SDS011;1535;51.098;6.414;2023-09-07T02:40:55;8.53;;;8.43;;
3050;SDS011;1535;51.098;6.414;2023-09-07T02:43:23;8.60;;;8.50;;
3050;SDS011;1535;51.098;6.414;2023-09-07T02:45:51;8.40;;;8.30;;
3050;SDS011;1535;51.098;6.414;2023-09-07T02:48:20;8.43;;;8.33;;
3050;SDS011;1535;51.098;6.414;2023-09-07T02:50:48;8.40;;;8.30;;
3050;SDS011;1535;51.098;6.414;2023-09-07T02:53:15;8.30;;;8.20;;
3050;SDS011;1535;51.098;6.414;2023-09-07T02:55:43;8.53;;;8.43;;
3050;SDS011;1535;51.098;6.414;2023-09-07T02:58:10;8.50;;;8.40;;
3050;SDS011;1535;51.098;6.414;2023-09-07T03:00:40;8.83;;;8.73;;
3050;SDS011;1535;51.098;6.414;2023-09-07T03:03:09;8.87;;;8.77;;
3050;SDS011;1535;51.098;6.414;2023-09-07T03:05:39;8.30;;;8.20;;
3050;SDS011;1535;51.098;6.414;2023-09-07T03:08:06;8.73;;;8.63;;
3050;SDS011;1535;51.098;6.414;2023-09-07T03:10:33;8.17;;;8.07;;
3050;SDS011;1535;51.098;6.414;2023-09-07T03:13:00;8.00;;;7.90;;
3050;SDS011;1535;51.098;6.414;2023-09-07T03:15:28;8.00;;;7.90;;
3050;SDS011;1535;51.098;6.414;2023-09-07T03:17:55;8.33;;;8.23;;
3050;SDS011;1535;51.098;6.414;2023-09-07T03:20:22;8.40;;;8.30;;
3050;SDS011;1535;51.098;6.414;2023-09-07T03:22:50;8.77;;;8.67;;
3050;SDS011;1535;51.098;6.414;2023-09-07T03:25:17;8.60;;;8.50;;
3050;SDS011;1535;51.098;6.414;2023-09-07T03:27:44;8.30;;;8.20;;
3050;SDS011;1535;51.098;6.414;2023-09-07T03:30:11;8.40;;;8.30;;
3050;SDS011;1535;51.098;6.414;2023-09-07T03:32:38;8.23;;;8.13;;
3050;SDS011;1535;51.098;6.414;2023-09-07T03:35:05;8.13;;;8.03;;
3050;SDS011;1535;51.098;6.414;2023-09-07T03:37:35;8.80;;;8.70;;
3050;SDS011;1535;51.098;6.414;2023-09-07T03:40:05;7.80;;;7.70;;
3050;SDS011;1535;51.098;6.414;2023-09-07T03:42:35;8.20;;;8.10;;
3050;SDS011;1535;51.098;6.414;2023-09-07T03:45:02;8.13;;;8.03;;
3050;SDS011;1535;51.098;6.414;2023-09-07T03:47:30;7.83;;;7.73;;
3050;SDS011;1535;51.098;6.414;2023-09-07T03:49:57;8.20;;;8.10;;
3050;SDS011;1535;51.098;6.414;2023-09-07T03:52:24;8.07;;;7.97;;
3050;SDS011;1535;51.098;6.414;2023-09-07T03:54:53;7.93;;;7.83;;
3050;SDS011;1535;51.098;6.414;2023-09-07T03:57:22;8.10;;;8.00;;
3050;SDS011;1535;51.098;6.414;2023-09-07T03:59:50;8.40;;;8.30;;
3050;SDS011;1535;51.098;6.414;2023-09-07T04:02:18;8.60;;;8.50;;
3050;SDS011;1535;51.098;6.414;2023-09-07T04:04:47;8.50;;;8.40;;
3050;SDS011;1535;51.098;6.414;2023-09-07T04:07:15;8.80;;;8.70;;
3050;SDS011;1535;51.098;6.414;2023-09-07T04:09:43;8.80;;;8.70;;
3050;SDS011;1535;51.098;6.414;2023-09-07T04:12:10;8.60;;;8.50;;
3050;SDS011;1535;51.098;6.414;2023-09-07T04:14:38;9.10;;;8.90;;
3050;SDS011;1535;51.098;6.414;2023-09-07T04:17:06;9.43;;;9.23;;
3050;SDS011;1535;51.098;6.414;2023-09-07T04:19:33;9.10;;;8.90;;
3050;SDS011;1535;51.098;6.414;2023-09-07T04:22:00;9.20;;;9.00;;
3050;SDS011;1535;51.098;6.414;2023-09-07T04:24:28;8.40;;;8.30;;
3050;SDS011;1535;51.098;6.414;2023-09-07T04:26:58;9.10;;;8.90;;
3050;SDS011;1535;51.098;6.414;2023-09-07T04:29:26;8.53;;;8.43;;
3050;SDS011;1535;51.098;6.414;2023-09-07T04:31:54;9.03;;;8.87;;
3050;SDS011;1535;51.098;6.414;2023-09-07T04:34:21;8.37;;;8.27;;
3050;SDS011;1535;51.098;6.414;2023-09-07T04:36:49;8.40;;;8.30;;
3050;SDS011;1535;51.098;6.414;2023-09-07T04:39:16;7.80;;;7.70;;
3050;SDS011;1535;51.098;6.414;2023-09-07T04:41:44;7.90;;;7.80;;
3050;SDS011;1535;51.098;6.414;2023-09-07T04:44:11;7.60;;;7.50;;
3050;SDS011;1535;51.098;6.414;2023-09-07T04:46:39;7.60;;;7.50;;
3050;SDS011;1535;51.098;6.414;2023-09-07T04:49:08;7.23;;;7.13;;
3050;SDS011;1535;51.098;6.414;2023-09-07T04:51:35;7.50;;;7.40;;
3050;SDS011;1535;51.098;6.414;2023-09-07T04:54:02;7.30;;;7.20;;
3050;SDS011;1535;51.098;6.414;2023-09-07T04:56:29;7.40;;;7.30;;
3050;SDS011;1535;51.098;6.414;2023-09-07T04:58:56;7.47;;;7.37;;
3050;SDS011;1535;51.098;6.414;2023-09-07T05:01:22;7.50;;;7.40;;
3050;SDS011;1535;51.098;6.414;2023-09-07T05:03:49;7.40;;;7.30;;
3050;SDS011;1535;51.098;6.414;2023-09-07T05:06:18;7.30;;;7.20;;
3050;SDS011;1535;51.098;6.414;2023-09-07T05:08:44;7.13;;;7.03;;
3050;SDS011;1535;51.098;6.414;2023-09-07T05:11:11;7.00;;;6.90;;
3050;SDS011;1535;51.098;6.414;2023-09-07T05:13:38;7.10;;;7.00;;
3050;SDS011;1535;51.098;6.414;2023-09-07T05:16:05;7.20;;;7.10;;
3050;SDS011;1535;51.098;6.414;2023-09-07T05:18:33;7.60;;;7.50;;
3050;SDS011;1535;51.098;6.414;2023-09-07T05:20:59;7.53;;;7.43;;
3050;SDS011;1535;51.098;6.414;2023-09-07T05:23:28;7.60;;;7.50;;
3050;SDS011;1535;51.098;6.414;2023-09-07T05:25:55;7.53;;;7.43;;
3050;SDS011;1535;51.098;6.414;2023-09-07T05:28:22;7.40;;;7.30;;
3050;SDS011;1535;51.098;6.414;2023-09-07T05:30:50;7.50;;;7.40;;
3050;SDS011;1535;51.098;6.414;2023-09-07T05:33:16;7.63;;;7.53;;
3050;SDS011;1535;51.098;6.414;2023-09-07T05:35:44;7.60;;;7.50;;
3050;SDS011;1535;51.098;6.414;2023-09-07T05:38:11;7.97;;;7.87;;
3050;SDS011;1535;51.098;6.414;2023-09-07T05:40:40;7.37;;;7.27;;
3050;SDS011;1535;51.098;6.414;2023-09-07T05:43:09;7.30;;;7.20;;
3050;SDS011;1535;51.098;6.414;2023-09-07T05:45:36;7.50;;;7.40;;
3050;SDS011;1535;51.098;6.414;2023-09-07T05:48:05;8.37;;;8.27;;
3050;SDS011;1535;51.098;6.414;2023-09-07T05:50:33;8.53;;;8.43;;
3050;SDS011;1535;51.098;6.414;2023-09-07T05:53:02;8.23;;;8.13;;
3050;SDS011;1535;51.098;6.414;2023-09-07T05:55:29;8.30;;;8.20;;
3050;SDS011;1535;51.098;6.414;2023-09-07T05:57:58;8.20;;;8.10;;
3050;SDS011;1535;51.098;6.414;2023-09-07T06:00:25;8.20;;;8.10;;
3050;SDS011;1535;51.098;6.414;2023-09-07T06:02:52;8.50;;;8.40;;
3050;SDS011;1535;51.098;6.414;2023-09-07T06:05:20;8.63;;;8.53;;
3050;SDS011;1535;51.098;6.414;2023-09-07T06:07:48;7.90;;;7.80;;
3050;SDS011;1535;51.098;6.414;2023-09-07T06:10:15;8.50;;;8.40;;
3050;SDS011;1535;51.098;6.414;2023-09-07T06:12:42;8.30;;;8.20;;
3050;SDS011;1535;51.098;6.414;2023-09-07T06:15:10;8.77;;;8.67;;
3050;SDS011;1535;51.098;6.414;2023-09-07T06:17:37;8.90;;;8.80;;
3050;SDS011;1535;51.098;6.414;2023-09-07T06:20:05;9.90;;;9.70;;
3050;SDS011;1535;51.098;6.414;2023-09-07T06:22:33;10.00;;;9.80;;
3050;SDS011;1535;51.098;6.414;2023-09-07T06:25:00;9.50;;;9.30;;
3050;SDS011;1535;51.098;6.414;2023-09-07T06:27:28;10.20;;;10.00;;
3050;SDS011;1535;51.098;6.414;2023-09-07T06:29:54;9.80;;;9.60;;
3050;SDS011;1535;51.098;6.414;2023-09-07T06:32:24;9.90;;;9.70;;
3050;SDS011;1535;51.098;6.414;2023-09-07T06:34:51;10.20;;;10.00;;
3050;SDS011;1535;51.098;6.414;2023-09-07T06:37:18;10.50;;;10.30;;
3050;SDS011;1535;51.098;6.414;2023-09-07T06:39:45;10.70;;;10.50;;
3050;SDS011;1535;51.098;6.414;2023-09-07T06:42:12;10.40;;;10.20;;
3050;SDS011;1535;51.098;6.414;2023-09-07T06:44:40;10.67;;;10.47;;
3050;SDS011;1535;51.098;6.414;2023-09-07T06:47:08;10.40;;;10.20;;
3050;SDS011;1535;51.098;6.414;2023-09-07T06:49:37;10.60;;;10.40;;
3050;SDS011;1535;51.098;6.414;2023-09-07T06:52:04;10.60;;;10.40;;
3050;SDS011;1535;51.098;6.414;2023-09-07T06:54:31;11.00;;;10.80;;
3050;SDS011;1535;51.098;6.414;2023-09-07T06:56:58;11.17;;;10.87;;
3050;SDS011;1535;51.098;6.414;2023-09-07T06:59:24;11.10;;;10.80;;
3050;SDS011;1535;51.098;6.414;2023-09-07T07:01:51;11.30;;;11.00;;
3050;SDS011;1535;51.098;6.414;2023-09-07T07:04:20;11.70;;;11.40;;
3050;SDS011;1535;51.098;6.414;2023-09-07T07:06:49;11.80;;;11.50;;
3050;SDS011;1535;51.098;6.414;2023-09-07T07:09:16;12.00;;;11.70;;
3050;SDS011;1535;51.098;6.414;2023-09-07T07:11:43;11.90;;;11.60;;
3050;SDS011;1535;51.098;6.414;2023-09-07T07:14:10;12.30;;;12.00;;
3050;SDS011;1535;51.098;6.414;2023-09-07T07:16:37;12.00;;;11.70;;
3050;SDS011;1535;51.098;6.414;2023-09-07T07:19:04;12.50;;;12.20;;
3050;SDS011;1535;51.098;6.414;2023-09-07T07:21:31;12.30;;;12.00;;
3050;SDS011;1535;51.098;6.414;2023-09-07T07:23:59;12.50;;;12.20;;
3050;SDS011;1535;51.098;6.414;2023-09-07T07:26:26;12.40;;;12.10;;
3050;SDS011;1535;51.098;6.414;2023-09-07T07:28:53;12.13;;;11.83;;
3050;SDS011;1535;51.098;6.414;2023-09-07T07:31:20;12.17;;;11.87;;
3050;SDS011;1535;51.098;6.414;2023-09-07T07:33:47;12.00;;;11.70;;
3050;SDS011;1535;51.098;6.414;2023-09-07T07:36:15;12.07;;;11.77;;
3050;SDS011;1535;51.098;6.414;2023-09-07T07:38:42;12.10;;;11.80;;
3050;SDS011;1535;51.098;6.414;2023-09-07T07:41:11;12.43;;;12.13;;
3050;SDS011;1535;51.098;6.414;2023-09-07T07:43:38;12.20;;;11.90;;
3050;SDS011;1535;51.098;6.414;2023-09-07T07:46:05;12.87;;;12.57;;
3050;SDS011;1535;51.098;6.414;2023-09-07T07:48:32;12.10;;;11.80;;
3050;SDS011;1535;51.098;6.414;2023-09-07T07:51:02;12.63;;;12.33;;
3050;SDS011;1535;51.098;6.414;2023-09-07T07:53:30;12.13;;;11.83;;
3050;SDS011;1535;51.098;6.414;2023-09-07T07:55:58;12.50;;;12.20;;
3050;SDS011;1535;51.098;6.414;2023-09-07T07:58:26;12.50;;;12.20;;
3050;SDS011;1535;51.098;6.414;2023-09-07T08:00:53;12.40;;;12.10;;
3050;SDS011;1535;51.098;6.414;2023-09-07T08:03:23;13.00;;;12.70;;
3050;SDS011;1535;51.098;6.414;2023-09-07T08:05:50;12.90;;;12.60;;
3050;SDS011;1535;51.098;6.414;2023-09-07T08:08:16;12.30;;;12.00;;
3050;SDS011;1535;51.098;6.414;2023-09-07T08:10:45;12.50;;;12.20;;
3050;SDS011;1535;51.098;6.414;2023-09-07T08:13:11;12.40;;;12.10;;
3050;SDS011;1535;51.098;6.414;2023-09-07T08:15:41;12.70;;;12.40;;
3050;SDS011;1535;51.098;6.414;2023-09-07T08:18:08;13.47;;;13.07;;
3050;SDS011;1535;51.098;6.414;2023-09-07T08:20:35;12.70;;;12.40;;
3050;SDS011;1535;51.098;6.414;2023-09-07T08:23:04;13.63;;;13.23;;
3050;SDS011;1535;51.098;6.414;2023-09-07T08:25:33;13.57;;;13.17;;
3050;SDS011;1535;51.098;6.414;2023-09-07T08:28:00;13.53;;;13.13;;
3050;SDS011;1535;51.098;6.414;2023-09-07T08:30:30;13.63;;;13.23;;
3050;SDS011;1535;51.098;6.414;2023-09-07T08:33:00;14.20;;;13.80;;
3050;SDS011;1535;51.098;6.414;2023-09-07T08:35:27;13.97;;;13.57;;
3050;SDS011;1535;51.098;6.414;2023-09-07T08:37:54;13.90;;;13.50;;
3050;SDS011;1535;51.098;6.414;2023-09-07T08:40:23;13.53;;;13.13;;
3050;SDS011;1535;51.098;6.414;2023-09-07T08:42:52;13.13;;;12.80;;
3050;SDS011;1535;51.098;6.414;2023-09-07T08:45:20;13.03;;;12.73;;
3050;SDS011;1535;51.098;6.414;2023-09-07T08:47:49;13.33;;;12.93;;
3050;SDS011;1535;51.098;6.414;2023-09-07T08:50:20;13.70;;;13.30;;
3050;SDS011;1535;51.098;6.414;2023-09-07T08:52:49;13.80;;;13.40;;
3050;SDS011;1535;51.098;6.414;2023-09-07T08:55:20;13.80;;;13.40;;
3050;SDS011;1535;51.098;6.414;2023-09-07T08:57:49;13.03;;;12.73;;
3050;SDS011;1535;51.098;6.414;2023-09-07T09:00:16;14.03;;;13.63;;
3050;SDS011;1535;51.098;6.414;2023-09-07T09:02:46;13.63;;;13.23;;
3050;SDS011;1535;51.098;6.414;2023-09-07T09:05:14;13.63;;;13.23;;
3050;SDS011;1535;51.098;6.414;2023-09-07T09:07:44;13.90;;;13.50;;
3050;SDS011;1535;51.098;6.414;2023-09-07T09:10:11;14.00;;;13.60;;
3050;SDS011;1535;51.098;6.414;2023-09-07T09:12:44;13.50;;;13.10;;
3050;SDS011;1535;51.098;6.414;2023-09-07T09:15:12;14.20;;;13.80;;
3050;SDS011;1535;51.098;6.414;2023-09-07T09:17:39;14.60;;;14.20;;
3050;SDS011;1535;51.098;6.414;2023-09-07T09:20:19;14.53;;;14.13;;
3050;SDS011;1535;51.098;6.414;2023-09-07T09:22:49;14.37;;;13.97;;
3050;SDS011;1535;51.098;6.414;2023-09-07T09:25:17;14.77;;;14.37;;
3050;SDS011;1535;51.098;6.414;2023-09-07T09:27:43;14.73;;;14.33;;
3050;SDS011;1535;51.098;6.414;2023-09-07T09:30:11;14.57;;;14.17;;
3050;SDS011;1535;51.098;6.414;2023-09-07T09:32:41;14.77;;;14.37;;
3050;SDS011;1535;51.098;6.414;2023-09-07T09:35:08;15.10;;;14.60;;
3050;SDS011;1535;51.098;6.414;2023-09-07T09:37:43;14.77;;;14.37;;
3050;SDS011;1535;51.098;6.414;2023-09-07T09:40:12;15.57;;;15.07;;
3050;SDS011;1535;51.098;6.414;2023-09-07T09:42:40;15.50;;;15.00;;
3050;SDS011;1535;51.098;6.414;2023-09-07T09:45:09;15.40;;;14.90;;
3050;SDS011;1535;51.098;6.414;2023-09-07T09:47:38;14.90;;;14.50;;
3050;SDS011;1535;51.098;6.414;2023-09-07T09:50:07;14.80;;;14.40;;
3050;SDS011;1535;51.098;6.414;2023-09-07T09:52:35;14.87;;;14.47;;
3050;SDS011;1535;51.098;6.414;2023-09-07T09:55:06;15.10;;;14.60;;
3050;SDS011;1535;51.098;6.414;2023-09-07T09:57:39;15.37;;;14.87;;
3050;SDS011;1535;51.098;6.414;2023-09-07T10:00:06;15.73;;;15.23;;
3050;SDS011;1535;51.098;6.414;2023-09-07T10:02:51;15.17;;;14.67;;
3050;SDS011;1535;51.098;6.414;2023-09-07T10:05:27;14.30;;;13.90;;
3050;SDS011;1535;51.098;6.414;2023-09-07T10:07:59;15.00;;;14.60;;
3050;SDS011;1535;51.098;6.414;2023-09-07T10:10:33;14.50;;;14.10;;
3050;SDS011;1535;51.098;6.414;2023-09-07T10:13:03;14.80;;;14.40;;
3050;SDS011;1535;51.098;6.414;2023-09-07T10:15:30;14.67;;;14.27;;
3050;SDS011;1535;51.098;6.414;2023-09-07T10:18:08;15.03;;;14.60;;
3050;SDS011;1535;51.098;6.414;2023-09-07T10:20:49;14.70;;;14.30;;
3050;SDS011;1535;51.098;6.414;2023-09-07T10:23:17;15.30;;;14.80;;
3050;SDS011;1535;51.098;6.414;2023-09-07T10:25:47;14.20;;;13.80;;
3050;SDS011;1535;51.098;6.414;2023-09-07T10:28:20;15.10;;;14.60;;
3050;SDS011;1535;51.098;6.414;2023-09-07T10:30:58;15.40;;;14.90;;
3050;SDS011;1535;51.098;6.414;2023-09-07T10:33:29;14.70;;;14.30;;
3050;SDS011;1535;51.098;6.414;2023-09-07T10:35:57;14.60;;;14.20;;
3050;SDS011;1535;51.098;6.414;2023-09-07T10:38:24;14.80;;;14.40;;
3050;SDS011;1535;51.098;6.414;2023-09-07T10:40:55;15.00;;;14.60;;
3050;SDS011;1535;51.098;6.414;2023-09-07T10:43:26;15.20;;;14.70;;
3050;SDS011;1535;51.098;6.414;2023-09-07T10:45:53;14.57;;;14.17;;
3050;SDS011;1535;51.098;6.414;2023-09-07T10:48:21;14.60;;;14.20;;
3050;SDS011;1535;51.098;6.414;2023-09-07T10:50:49;15.40;;;14.90;;
3050;SDS011;1535;51.098;6.414;2023-09-07T10:53:24;15.17;;;14.67;;
3050;SDS011;1535;51.098;6.414;2023-09-07T10:55:52;15.67;;;15.17;;
3050;SDS011;1535;51.098;6.414;2023-09-07T10:58:24;14.90;;;14.50;;
3050;SDS011;1535;51.098;6.414;2023-09-07T11:00:54;14.47;;;14.07;;
3050;SDS011;1535;51.098;6.414;2023-09-07T11:03:21;14.77;;;14.37;;
3050;SDS011;1535;51.098;6.414;2023-09-07T11:05:48;14.60;;;14.20;;
3050;SDS011;1535;51.098;6.414;2023-09-07T11:08:17;14.30;;;13.90;;
3050;SDS011;1535;51.098;6.414;2023-09-07T11:10:44;14.87;;;14.47;;
3050;SDS011;1535;51.098;6.414;2023-09-07T11:13:11;14.47;;;14.07;;
3050;SDS011;1535;51.098;6.414;2023-09-07T11:15:39;14.40;;;14.00;;
3050;SDS011;1535;51.098;6.414;2023-09-07T11:18:08;14.10;;;13.70;;
3050;SDS011;1535;51.098;6.414;2023-09-07T11:20:35;14.10;;;13.70;;
3050;SDS011;1535;51.098;6.414;2023-09-07T11:23:04;14.13;;;13.73;;
3050;SDS011;1535;51.098;6.414;2023-09-07T11:25:35;14.13;;;13.73;;
3050;SDS011;1535;51.098;6.414;2023-09-07T11:28:03;14.10;;;13.70;;
3050;SDS011;1535;51.098;6.414;2023-09-07T11:30:30;13.77;;;13.37;;
3050;SDS011;1535;51.098;6.414;2023-09-07T11:33:05;13.77;;;13.37;;
3050;SDS011;1535;51.098;6.414;2023-09-07T11:35:33;13.97;;;13.57;;
3050;SDS011;1535;51.098;6.414;2023-09-07T11:38:00;12.40;;;12.10;;
3050;SDS011;1535;51.098;6.414;2023-09-07T11:40:30;13.90;;;13.50;;
3050;SDS011;1535;51.098;6.414;2023-09-07T11:42:57;13.00;;;12.70;;
3050;SDS011;1535;51.098;6.414;2023-09-07T11:45:24;13.30;;;12.97;;
3050;SDS011;1535;51.098;6.414;2023-09-07T11:47:52;13.20;;;12.90;;
3050;SDS011;1535;51.098;6.414;2023-09-07T11:50:22;13.40;;;13.00;;
3050;SDS011;1535;51.098;6.414;2023-09-07T11:52:52;12.93;;;12.63;;
3050;SDS011;1535;51.098;6.414;2023-09-07T11:55:19;13.30;;;12.90;;
3050;SDS011;1535;51.098;6.414;2023-09-07T11:57:47;13.90;;;13.50;;
3050;SDS011;1535;51.098;6.414;2023-09-07T12:00:14;14.20;;;13.80;;
3050;SDS011;1535;51.098;6.414;2023-09-07T12:02:42;13.00;;;12.70;;
3050;SDS011;1535;51.098;6.414;2023-09-07T12:05:09;12.53;;;12.23;;
3050;SDS011;1535;51.098;6.414;2023-09-07T12:07:41;13.10;;;12.80;;
3050;SDS011;1535;51.098;6.414;2023-09-07T12:10:08;13.47;;;13.07;;
3050;SDS011;1535;51.098;6.414;2023-09-07T12:12:38;13.10;;;12.80;;
3050;SDS011;1535;51.098;6.414;2023-09-07T12:15:06;13.07;;;12.77;;
3050;SDS011;1535;51.098;6.414;2023-09-07T12:17:33;13.17;;;12.87;;
3050;SDS011;1535;51.098;6.414;2023-09-07T12:20:01;13.10;;;12.80;;
3050;SDS011;1535;51.098;6.414;2023-09-07T12:22:30;12.53;;;12.23;;
3050;SDS011;1535;51.098;6.414;2023-09-07T12:25:00;13.20;;;12.90;;
3050;SDS011;1535;51.098;6.414;2023-09-07T12:27:27;13.67;;;13.27;;
3050;SDS011;1535;51.098;6.414;2023-09-07T12:29:54;13.60;;;13.20;;
3050;SDS011;1535;51.098;6.414;2023-09-07T12:32:22;13.87;;;13.47;;
3050;SDS011;1535;51.098;6.414;2023-09-07T12:34:49;13.63;;;13.23;;
3050;SDS011;1535;51.098;6.414;2023-09-07T12:37:18;13.60;;;13.20;;
3050;SDS011;1535;51.098;6.414;2023-09-07T12:39:48;13.30;;;13.00;;
3050;SDS011;1535;51.098;6.414;2023-09-07T12:42:16;13.70;;;13.30;;
3050;SDS011;1535;51.098;6.414;2023-09-07T12:44:44;13.90;;;13.50;;
3050;SDS011;1535;51.098;6.414;2023-09-07T12:47:11;13.53;;;13.13;;
3050;SDS011;1535;51.098;6.414;2023-09-07T12:49:40;13.10;;;12.80;;
3050;SDS011;1535;51.098;6.414;2023-09-07T12:52:06;13.73;;;13.33;;
3050;SDS011;1535;51.098;6.414;2023-09-07T12:54:36;13.47;;;13.07;;
3050;SDS011;1535;51.098;6.414;2023-09-07T12:57:03;13.47;;;13.07;;
3050;SDS011;1535;51.098;6.414;2023-09-07T12:59:32;13.07;;;12.77;;
3050;SDS011;1535;51.098;6.414;2023-09-07T13:01:59;12.50;;;12.20;;
3050;SDS011;1535;51.098;6.414;2023-09-07T13:04:26;13.07;;;12.77;;
3050;SDS011;1535;51.098;6.414;2023-09-07T13:06:53;13.50;;;13.10;;
3050;SDS011;1535;51.098;6.414;2023-09-07T13:09:20;13.07;;;12.77;;
3050;SDS011;1535;51.098;6.414;2023-09-07T13:11:47;12.90;;;12.60;;
3050;SDS011;1535;51.098;6.414;2023-09-07T13:14:14;12.80;;;12.50;;
3050;SDS011;1535;51.098;6.414;2023-09-07T13:16:43;12.90;;;12.60;;
3050;SDS011;1535;51.098;6.414;2023-09-07T13:19:10;12.70;;;12.40;;
3050;SDS011;1535;51.098;6.414;2023-09-07T13:21:38;13.37;;;13.00;;
3050;SDS011;1535;51.098;6.414;2023-09-07T13:24:05;13.00;;;12.70;;
3050;SDS011;1535;51.098;6.414;2023-09-07T13:26:32;12.83;;;12.53;;
3050;SDS011;1535;51.098;6.414;2023-09-07T13:28:59;12.57;;;12.27;;
3050;SDS011;1535;51.098;6.414;2023-09-07T13:31:26;13.60;;;13.20;;
3050;SDS011;1535;51.098;6.414;2023-09-07T13:33:54;12.73;;;12.43;;
3050;SDS011;1535;51.098;6.414;2023-09-07T13:36:21;13.67;;;13.27;;
3050;SDS011;1535;51.098;6.414;2023-09-07T13:38:48;13.57;;;13.17;;
3050;SDS011;1535;51.098;6.414;2023-09-07T13:41:15;13.07;;;12.77;;
3050;SDS011;1535;51.098;6.414;2023-09-07T13:43:43;12.73;;;12.43;;
3050;SDS011;1535;51.098;6.414;2023-09-07T13:46:09;13.60;;;13.20;;
3050;SDS011;1535;51.098;6.414;2023-09-07T13:48:36;13.97;;;13.57;;
3050;SDS011;1535;51.098;6.414;2023-09-07T13:51:05;12.57;;;12.27;;
3050;SDS011;1535;51.098;6.414;2023-09-07T13:53:33;12.63;;;12.33;;
3050;SDS011;1535;51.098;6.414;2023-09-07T13:56:00;12.67;;;12.37;;
3050;SDS011;1535;51.098;6.414;2023-09-07T13:58:27;13.27;;;12.93;;
3050;SDS011;1535;51.098;6.414;2023-09-07T14:00:53;12.90;;;12.60;;
3050;SDS011;1535;51.098;6.414;2023-09-07T14:03:21;13.93;;;13.53;;
3050;SDS011;1535;51.098;6.414;2023-09-07T14:05:48;12.97;;;12.67;;
3050;SDS011;1535;51.098;6.414;2023-09-07T14:08:17;12.27;;;11.97;;
3050;SDS011;1535;51.098;6.414;2023-09-07T14:10:48;12.47;;;12.17;;
3050;SDS011;1535;51.098;6.414;2023-09-07T14:13:15;12.83;;;12.53;;
3050;SDS011;1535;51.098;6.414;2023-09-07T14:15:43;12.60;;;12.30;;
3050;SDS011;1535;51.098;6.414;2023-09-07T14:18:11;12.73;;;12.43;;
3050;SDS011;1535;51.098;6.414;2023-09-07T14:20:38;12.67;;;12.37;;
3050;SDS011;1535;51.098;6.414;2023-09-07T14:23:04;12.90;;;12.60;;
3050;SDS011;1535;51.098;6.414;2023-09-07T14:25:34;12.70;;;12.40;;
3050;SDS011;1535;51.098;6.414;2023-09-07T14:28:03;12.80;;;12.50;;
3050;SDS011;1535;51.098;6.414;2023-09-07T14:30:30;12.57;;;12.27;;
3050;SDS011;1535;51.098;6.414;2023-09-07T14:32:56;12.77;;;12.47;;
3050;SDS011;1535;51.098;6.414;2023-09-07T14:35:25;13.27;;;12.97;;
3050;SDS011;1535;51.098;6.414;2023-09-07T14:37:51;13.60;;;13.20;;
3050;SDS011;1535;51.098;6.414;2023-09-07T14:40:19;13.03;;;12.73;;
3050;SDS011;1535;51.098;6.414;2023-09-07T14:42:48;13.67;;;13.27;;
3050;SDS011;1535;51.098;6.414;2023-09-07T14:45:15;11.97;;;11.67;;
3050;SDS011;1535;51.098;6.414;2023-09-07T14:47:43;13.43;;;13.03;;
3050;SDS011;1535;51.098;6.414;2023-09-07T14:50:10;13.30;;;13.00;;
3050;SDS011;1535;51.098;6.414;2023-09-07T14:52:37;13.60;;;13.20;;
3050;SDS011;1535;51.098;6.414;2023-09-07T14:55:08;13.10;;;12.80;;
3050;SDS011;1535;51.098;6.414;2023-09-07T14:57:34;13.50;;;13.10;;
3050;SDS011;1535;51.098;6.414;2023-09-07T15:00:05;13.50;;;13.10;;
3050;SDS011;1535;51.098;6.414;2023-09-07T15:02:33;12.90;;;12.60;;
3050;SDS011;1535;51.098;6.414;2023-09-07T15:05:00;12.90;;;12.60;;